sensor_id;sensor_type;location;lat;lon;timestamp;temperature;humidity
33699;DHT22;20032;52.436;13.312;2022-12-24T00:01:30;6.60;99.90
33699;DHT22;20032;52.436;13.312;2022-12-24T00:03:55;6.60;99.90
33699;DHT22;20032;52.436;13.312;2022-12-24T00:06:22;6.60;99.90
33699;DHT22;20032;52.436;13.312;2022-12-24T00:08:48;6.60;99.90
33699;DHT22;20032;52.436;13.312;2022-12-24T00:11:15;6.60;99.90
33699;DHT22;20032;52.436;13.312;2022-12-24T00:13:42;6.60;99.90
33699;DHT22;20032;52.436;13.312;2022-12-24T00:16:08;6.60;99.90
33699;DHT22;20032;52.436;13.312;2022-12-24T00:18:33;6.50;99.90
33699;DHT22;20032;52.436;13.312;2022-12-24T00:20:59;6.50;99.90
33699;DHT22;20032;52.436;13.312;2022-12-24T00:23:26;6.50;99.90
33699;DHT22;20032;52.436;13.312;2022-12-24T00:25:51;6.50;99.90
33699;DHT22;20032;52.436;13.312;2022-12-24T00:28:17;6.50;99.90
33699;DHT22;20032;52.436;13.312;2022-12-24T00:30:42;6.40;99.90
33699;DHT22;20032;52.436;13.312;2022-12-24T00:33:08;6.40;99.90
33699;DHT22;20032;52.436;13.312;2022-12-24T00:35:35;6.40;99.90
33699;DHT22;20032;52.436;13.312;2022-12-24T00:38:00;6.40;99.90
33699;DHT22;20032;52.436;13.312;2022-12-24T00:40:28;6.40;99.90
33699;DHT22;20032;52.436;13.312;2022-12-24T00:42:54;6.40;99.90
33699;DHT22;20032;52.436;13.312;2022-12-24T00:45:19;6.40;99.90
33699;DHT22;20032;52.436;13.312;2022-12-24T00:47:45;6.40;99.90
33699;DHT22;20032;52.436;13.312;2022-12-24T00:50:10;6.40;99.90
33699;DHT22;20032;52.436;13.312;2022-12-24T00:52:36;6.50;99.90
33699;DHT22;20032;52.436;13.312;2022-12-24T00:55:01;6.40;99.90
33699;DHT22;20032;52.436;13.312;2022-12-24T00:57:27;6.40;99.90
33699;DHT22;20032;52.436;13.312;2022-12-24T00:59:52;6.40;99.90
33699;DHT22;20032;52.436;13.312;2022-12-24T01:02:18;6.40;99.90
33699;DHT22;20032;52.436;13.312;2022-12-24T01:04:43;6.40;99.90
33699;DHT22;20032;52.436;13.312;2022-12-24T01:07:31;6.40;99.90
33699;DHT22;20032;52.436;13.312;2022-12-24T01:09:56;6.40;99.90
33699;DHT22;20032;52.436;13.312;2022-12-24T01:12:22;6.40;99.90
33699;DHT22;20032;52.436;13.312;2022-12-24T01:14:47;6.40;99.90
33699;DHT22;20032;52.436;13.312;2022-12-24T01:17:13;6.40;99.90
33699;DHT22;20032;52.436;13.312;2022-12-24T01:19:39;6.30;99.90
33699;DHT22;20032;52.436;13.312;2022-12-24T01:22:04;6.40;99.90
33699;DHT22;20032;52.436;13.312;2022-12-24T01:24:30;6.30;99.90
33699;DHT22;20032;52.436;13.312;2022-12-24T01:26:55;6.30;99.90
33699;DHT22;20032;52.436;13.312;2022-12-24T01:29:21;6.30;99.90
33699;DHT22;20032;52.436;13.312;2022-12-24T01:31:46;6.30;99.90
33699;DHT22;20032;52.436;13.312;2022-12-24T01:34:12;6.30;99.90
33699;DHT22;20032;52.436;13.312;2022-12-24T01:36:37;6.30;99.90
33699;DHT22;20032;52.436;13.312;2022-12-24T01:39:03;6.40;99.90
33699;DHT22;20032;52.436;13.312;2022-12-24T01:41:30;6.40;99.90
33699;DHT22;20032;52.436;13.312;2022-12-24T01:46:49;6.40;99.90
33699;DHT22;20032;52.436;13.312;2022-12-24T01:49:16;6.40;99.90
33699;DHT22;20032;52.436;13.312;2022-12-24T01:51:50;6.40;99.90
33699;DHT22;20032;52.436;13.312;2022-12-24T01:54:20;6.30;99.90
33699;DHT22;20032;52.436;13.312;2022-12-24T01:56:48;6.40;99.90
33699;DHT22;20032;52.436;13.312;2022-12-24T01:59:16;6.40;99.90
33699;DHT22;20032;52.436;13.312;2022-12-24T02:01:45;6.30;99.90
33699;DHT22;20032;52.436;13.312;2022-12-24T02:04:25;6.40;99.90
33699;DHT22;20032;52.436;13.312;2022-12-24T02:06:52;6.40;99.90
33699;DHT22;20032;52.436;13.312;2022-12-24T02:09:18;6.40;99.90
33699;DHT22;20032;52.436;13.312;2022-12-24T02:11:44;6.40;99.90
33699;DHT22;20032;52.436;13.312;2022-12-24T02:14:11;6.40;99.90
33699;DHT22;20032;52.436;13.312;2022-12-24T02:20:05;6.40;99.90
33699;DHT22;20032;52.436;13.312;2022-12-24T02:23:06;6.50;99.90
33699;DHT22;20032;52.436;13.312;2022-12-24T02:26:54;6.40;99.90
33699;DHT22;20032;52.436;13.312;2022-12-24T02:28:43;6.40;99.90
33699;DHT22;20032;52.436;13.312;2022-12-24T02:31:15;6.40;99.90
33699;DHT22;20032;52.436;13.312;2022-12-24T02:33:51;6.40;99.90
33699;DHT22;20032;52.436;13.312;2022-12-24T02:36:24;6.50;99.90
33699;DHT22;20032;52.436;13.312;2022-12-24T02:39:02;6.50;99.90
33699;DHT22;20032;52.436;13.312;2022-12-24T02:41:32;6.50;99.90
33699;DHT22;20032;52.436;13.312;2022-12-24T02:44:22;6.50;99.90
33699;DHT22;20032;52.436;13.312;2022-12-24T02:46:49;6.50;99.90
33699;DHT22;20032;52.436;13.312;2022-12-24T02:49:15;6.50;99.90
33699;DHT22;20032;52.436;13.312;2022-12-24T02:51:40;6.40;99.90
33699;DHT22;20032;52.436;13.312;2022-12-24T02:54:06;6.40;99.90
33699;DHT22;20032;52.436;13.312;2022-12-24T02:57:11;6.50;99.90
33699;DHT22;20032;52.436;13.312;2022-12-24T03:07:41;6.40;99.90
33699;DHT22;20032;52.436;13.312;2022-12-24T03:11:02;6.40;99.90
33699;DHT22;20032;52.436;13.312;2022-12-24T03:13:16;6.40;99.90
33699;DHT22;20032;52.436;13.312;2022-12-24T03:15:43;6.40;99.90
33699;DHT22;20032;52.436;13.312;2022-12-24T03:18:12;6.40;99.90
33699;DHT22;20032;52.436;13.312;2022-12-24T03:20:42;6.40;99.90
33699;DHT22;20032;52.436;13.312;2022-12-24T03:23:09;6.40;99.90
33699;DHT22;20032;52.436;13.312;2022-12-24T03:25:40;6.40;99.90
33699;DHT22;20032;52.436;13.312;2022-12-24T03:28:06;6.40;99.90
33699;DHT22;20032;52.436;13.312;2022-12-24T03:30:33;6.50;99.90
33699;DHT22;20032;52.436;13.312;2022-12-24T03:32:59;6.40;99.90
33699;DHT22;20032;52.436;13.312;2022-12-24T03:35:25;6.40;99.90
33699;DHT22;20032;52.436;13.312;2022-12-24T03:37:51;6.40;99.90
33699;DHT22;20032;52.436;13.312;2022-12-24T03:40:16;6.40;99.90
33699;DHT22;20032;52.436;13.312;2022-12-24T03:42:42;6.40;99.90
33699;DHT22;20032;52.436;13.312;2022-12-24T03:45:07;6.40;99.90
33699;DHT22;20032;52.436;13.312;2022-12-24T03:47:33;6.40;99.90
33699;DHT22;20032;52.436;13.312;2022-12-24T03:50:01;6.50;99.90
33699;DHT22;20032;52.436;13.312;2022-12-24T03:52:26;6.40;99.90
33699;DHT22;20032;52.436;13.312;2022-12-24T03:54:52;6.40;99.90
33699;DHT22;20032;52.436;13.312;2022-12-24T03:57:18;6.40;99.90
33699;DHT22;20032;52.436;13.312;2022-12-24T03:59:43;6.40;99.90
33699;DHT22;20032;52.436;13.312;2022-12-24T04:02:09;6.40;99.90
33699;DHT22;20032;52.436;13.312;2022-12-24T04:04:34;6.40;99.90
33699;DHT22;20032;52.436;13.312;2022-12-24T04:07:02;6.40;99.90
33699;DHT22;20032;52.436;13.312;2022-12-24T04:09:28;6.40;99.90
33699;DHT22;20032;52.436;13.312;2022-12-24T04:11:53;6.40;99.90
33699;DHT22;20032;52.436;13.312;2022-12-24T04:14:20;6.40;99.90
33699;DHT22;20032;52.436;13.312;2022-12-24T04:16:45;6.40;99.90
33699;DHT22;20032;52.436;13.312;2022-12-24T04:19:11;6.40;99.90
33699;DHT22;20032;52.436;13.312;2022-12-24T04:21:36;6.40;99.90
33699;DHT22;20032;52.436;13.312;2022-12-24T04:24:01;6.30;99.90
33699;DHT22;20032;52.436;13.312;2022-12-24T04:26:27;6.30;99.90
33699;DHT22;20032;52.436;13.312;2022-12-24T04:28:52;6.30;99.90
33699;DHT22;20032;52.436;13.312;2022-12-24T04:31:18;6.40;99.90
33699;DHT22;20032;52.436;13.312;2022-12-24T04:33:44;6.30;99.90
33699;DHT22;20032;52.436;13.312;2022-12-24T04:36:12;6.40;99.90
33699;DHT22;20032;52.436;13.312;2022-12-24T04:38:38;6.40;99.90
33699;DHT22;20032;52.436;13.312;2022-12-24T04:41:06;6.40;99.90
33699;DHT22;20032;52.436;13.312;2022-12-24T04:43:33;6.30;99.90
33699;DHT22;20032;52.436;13.312;2022-12-24T04:46:08;6.30;99.90
33699;DHT22;20032;52.436;13.312;2022-12-24T04:48:34;6.30;99.90
33699;DHT22;20032;52.436;13.312;2022-12-24T04:51:04;6.40;99.90
33699;DHT22;20032;52.436;13.312;2022-12-24T04:53:30;6.30;99.90
33699;DHT22;20032;52.436;13.312;2022-12-24T04:55:56;6.30;99.90
33699;DHT22;20032;52.436;13.312;2022-12-24T04:58:22;6.20;99.90
33699;DHT22;20032;52.436;13.312;2022-12-24T05:00:49;6.30;99.90
33699;DHT22;20032;52.436;13.312;2022-12-24T05:03:14;6.30;99.90
33699;DHT22;20032;52.436;13.312;2022-12-24T05:05:40;6.20;99.90
33699;DHT22;20032;52.436;13.312;2022-12-24T05:08:06;6.20;99.90
33699;DHT22;20032;52.436;13.312;2022-12-24T05:10:32;6.30;99.90
33699;DHT22;20032;52.436;13.312;2022-12-24T05:12:57;6.30;99.90
33699;DHT22;20032;52.436;13.312;2022-12-24T05:15:23;6.30;99.90
33699;DHT22;20032;52.436;13.312;2022-12-24T05:17:49;6.30;99.90
33699;DHT22;20032;52.436;13.312;2022-12-24T05:20:14;6.30;99.90
33699;DHT22;20032;52.436;13.312;2022-12-24T05:22:40;6.30;99.90
33699;DHT22;20032;52.436;13.312;2022-12-24T05:25:32;6.20;99.90
33699;DHT22;20032;52.436;13.312;2022-12-24T05:28:06;6.20;99.90
33699;DHT22;20032;52.436;13.312;2022-12-24T05:30:32;6.30;99.90
33699;DHT22;20032;52.436;13.312;2022-12-24T05:32:57;6.30;99.90
33699;DHT22;20032;52.436;13.312;2022-12-24T05:35:23;6.20;99.90
33699;DHT22;20032;52.436;13.312;2022-12-24T05:37:48;6.20;99.90
33699;DHT22;20032;52.436;13.312;2022-12-24T05:40:14;6.20;99.90
33699;DHT22;20032;52.436;13.312;2022-12-24T05:42:39;6.20;99.90
33699;DHT22;20032;52.436;13.312;2022-12-24T05:45:05;6.10;99.90
33699;DHT22;20032;52.436;13.312;2022-12-24T05:47:31;6.20;99.90
33699;DHT22;20032;52.436;13.312;2022-12-24T05:49:57;6.20;99.90
33699;DHT22;20032;52.436;13.312;2022-12-24T05:52:22;6.20;99.90
33699;DHT22;20032;52.436;13.312;2022-12-24T05:54:48;6.20;99.90
33699;DHT22;20032;52.436;13.312;2022-12-24T05:57:14;6.10;99.90
33699;DHT22;20032;52.436;13.312;2022-12-24T05:59:40;6.10;99.90
33699;DHT22;20032;52.436;13.312;2022-12-24T06:02:05;6.20;99.90
33699;DHT22;20032;52.436;13.312;2022-12-24T06:04:31;6.20;99.90
33699;DHT22;20032;52.436;13.312;2022-12-24T06:06:56;6.20;99.90
33699;DHT22;20032;52.436;13.312;2022-12-24T06:09:21;6.20;99.90
33699;DHT22;20032;52.436;13.312;2022-12-24T06:11:47;6.20;99.90
33699;DHT22;20032;52.436;13.312;2022-12-24T06:14:12;6.10;99.90
33699;DHT22;20032;52.436;13.312;2022-12-24T06:16:38;6.10;99.90
33699;DHT22;20032;52.436;13.312;2022-12-24T06:19:03;6.10;99.90
33699;DHT22;20032;52.436;13.312;2022-12-24T06:21:29;6.10;99.90
33699;DHT22;20032;52.436;13.312;2022-12-24T06:23:55;6.20;99.90
33699;DHT22;20032;52.436;13.312;2022-12-24T06:26:21;6.20;99.90
33699;DHT22;20032;52.436;13.312;2022-12-24T06:28:49;6.10;99.90
33699;DHT22;20032;52.436;13.312;2022-12-24T06:31:16;6.10;99.90
33699;DHT22;20032;52.436;13.312;2022-12-24T06:33:44;6.10;99.90
33699;DHT22;20032;52.436;13.312;2022-12-24T06:36:13;6.10;99.90
33699;DHT22;20032;52.436;13.312;2022-12-24T06:38:39;6.10;99.90
33699;DHT22;20032;52.436;13.312;2022-12-24T06:41:05;6.10;99.90
33699;DHT22;20032;52.436;13.312;2022-12-24T06:43:31;6.10;99.90
33699;DHT22;20032;52.436;13.312;2022-12-24T06:46:00;6.10;99.90
33699;DHT22;20032;52.436;13.312;2022-12-24T06:48:25;6.10;99.90
33699;DHT22;20032;52.436;13.312;2022-12-24T06:50:53;6.10;99.90
33699;DHT22;20032;52.436;13.312;2022-12-24T06:53:18;6.10;99.90
33699;DHT22;20032;52.436;13.312;2022-12-24T06:55:44;6.20;99.90
33699;DHT22;20032;52.436;13.312;2022-12-24T06:58:09;6.20;99.90
33699;DHT22;20032;52.436;13.312;2022-12-24T07:00:35;6.20;99.90
33699;DHT22;20032;52.436;13.312;2022-12-24T07:03:01;6.20;99.90
33699;DHT22;20032;52.436;13.312;2022-12-24T07:05:26;6.10;99.90
33699;DHT22;20032;52.436;13.312;2022-12-24T07:07:52;6.20;99.90
33699;DHT22;20032;52.436;13.312;2022-12-24T07:10:18;6.20;99.90
33699;DHT22;20032;52.436;13.312;2022-12-24T07:12:45;6.20;99.90
33699;DHT22;20032;52.436;13.312;2022-12-24T07:15:11;6.10;99.90
33699;DHT22;20032;52.436;13.312;2022-12-24T07:17:37;6.20;99.90
33699;DHT22;20032;52.436;13.312;2022-12-24T07:20:04;6.20;99.90
33699;DHT22;20032;52.436;13.312;2022-12-24T07:22:30;6.20;99.90
33699;DHT22;20032;52.436;13.312;2022-12-24T07:24:55;6.10;99.90
33699;DHT22;20032;52.436;13.312;2022-12-24T07:27:21;6.10;99.90
33699;DHT22;20032;52.436;13.312;2022-12-24T07:29:46;6.20;99.90
33699;DHT22;20032;52.436;13.312;2022-12-24T07:32:12;6.20;99.90
33699;DHT22;20032;52.436;13.312;2022-12-24T07:34:38;6.30;99.90
33699;DHT22;20032;52.436;13.312;2022-12-24T07:37:04;6.30;99.90
33699;DHT22;20032;52.436;13.312;2022-12-24T07:39:30;6.10;99.90
33699;DHT22;20032;52.436;13.312;2022-12-24T07:41:55;6.20;99.90
33699;DHT22;20032;52.436;13.312;2022-12-24T07:44:20;6.20;99.90
33699;DHT22;20032;52.436;13.312;2022-12-24T07:46:46;6.10;99.90
33699;DHT22;20032;52.436;13.312;2022-12-24T07:49:12;6.10;99.90
33699;DHT22;20032;52.436;13.312;2022-12-24T07:51:38;6.10;99.90
33699;DHT22;20032;52.436;13.312;2022-12-24T07:54:03;6.10;99.90
33699;DHT22;20032;52.436;13.312;2022-12-24T07:56:30;6.10;99.90
33699;DHT22;20032;52.436;13.312;2022-12-24T07:58:55;6.10;99.90
33699;DHT22;20032;52.436;13.312;2022-12-24T08:01:21;6.10;99.90
33699;DHT22;20032;52.436;13.312;2022-12-24T08:03:47;6.20;99.90
33699;DHT22;20032;52.436;13.312;2022-12-24T08:06:12;6.20;99.90
33699;DHT22;20032;52.436;13.312;2022-12-24T08:08:38;6.20;99.90
33699;DHT22;20032;52.436;13.312;2022-12-24T08:11:05;6.20;99.90
33699;DHT22;20032;52.436;13.312;2022-12-24T08:13:31;6.20;99.90
33699;DHT22;20032;52.436;13.312;2022-12-24T08:15:57;6.20;99.90
33699;DHT22;20032;52.436;13.312;2022-12-24T08:18:23;6.20;99.90
33699;DHT22;20032;52.436;13.312;2022-12-24T08:20:49;6.10;99.90
33699;DHT22;20032;52.436;13.312;2022-12-24T08:23:15;6.10;99.90
33699;DHT22;20032;52.436;13.312;2022-12-24T08:25:43;6.10;99.90
33699;DHT22;20032;52.436;13.312;2022-12-24T08:28:10;6.20;99.90
33699;DHT22;20032;52.436;13.312;2022-12-24T08:30:37;6.30;99.90
33699;DHT22;20032;52.436;13.312;2022-12-24T08:33:02;6.30;99.90
33699;DHT22;20032;52.436;13.312;2022-12-24T08:35:29;6.30;99.90
33699;DHT22;20032;52.436;13.312;2022-12-24T08:37:54;6.40;99.90
33699;DHT22;20032;52.436;13.312;2022-12-24T08:40:20;6.30;99.90
33699;DHT22;20032;52.436;13.312;2022-12-24T08:42:46;6.30;99.90
33699;DHT22;20032;52.436;13.312;2022-12-24T08:45:12;6.30;99.90
33699;DHT22;20032;52.436;13.312;2022-12-24T08:47:38;6.30;99.90
33699;DHT22;20032;52.436;13.312;2022-12-24T08:50:05;6.30;99.90
33699;DHT22;20032;52.436;13.312;2022-12-24T08:52:32;6.30;99.90
33699;DHT22;20032;52.436;13.312;2022-12-24T08:54:57;6.30;99.90
33699;DHT22;20032;52.436;13.312;2022-12-24T08:57:23;6.40;99.90
33699;DHT22;20032;52.436;13.312;2022-12-24T08:59:49;6.40;99.90
33699;DHT22;20032;52.436;13.312;2022-12-24T09:02:14;6.40;99.90
33699;DHT22;20032;52.436;13.312;2022-12-24T09:04:46;6.40;99.90
33699;DHT22;20032;52.436;13.312;2022-12-24T09:07:11;6.40;99.90
33699;DHT22;20032;52.436;13.312;2022-12-24T09:09:38;6.40;99.90
33699;DHT22;20032;52.436;13.312;2022-12-24T09:12:05;6.40;99.90
33699;DHT22;20032;52.436;13.312;2022-12-24T09:14:30;6.40;99.90
33699;DHT22;20032;52.436;13.312;2022-12-24T09:16:56;6.50;99.90
33699;DHT22;20032;52.436;13.312;2022-12-24T09:19:22;6.40;99.90
33699;DHT22;20032;52.436;13.312;2022-12-24T09:21:47;6.40;99.90
33699;DHT22;20032;52.436;13.312;2022-12-24T09:24:12;6.40;99.90
33699;DHT22;20032;52.436;13.312;2022-12-24T09:26:39;6.50;99.90
33699;DHT22;20032;52.436;13.312;2022-12-24T09:29:09;6.50;99.90
33699;DHT22;20032;52.436;13.312;2022-12-24T09:31:34;6.60;99.90
33699;DHT22;20032;52.436;13.312;2022-12-24T09:34:00;6.50;99.90
33699;DHT22;20032;52.436;13.312;2022-12-24T09:36:26;6.60;99.90
33699;DHT22;20032;52.436;13.312;2022-12-24T09:38:51;6.70;99.90
33699;DHT22;20032;52.436;13.312;2022-12-24T09:41:40;6.70;99.90
33699;DHT22;20032;52.436;13.312;2022-12-24T09:44:32;6.80;99.90
33699;DHT22;20032;52.436;13.312;2022-12-24T09:47:00;6.80;99.90
33699;DHT22;20032;52.436;13.312;2022-12-24T09:49:37;6.70;99.90
33699;DHT22;20032;52.436;13.312;2022-12-24T09:52:07;6.80;99.90
33699;DHT22;20032;52.436;13.312;2022-12-24T09:54:41;6.80;99.90
33699;DHT22;20032;52.436;13.312;2022-12-24T09:57:27;6.80;99.90
33699;DHT22;20032;52.436;13.312;2022-12-24T09:59:55;6.80;99.90
33699;DHT22;20032;52.436;13.312;2022-12-24T10:02:21;6.80;99.90
33699;DHT22;20032;52.436;13.312;2022-12-24T10:04:47;6.80;99.90
33699;DHT22;20032;52.436;13.312;2022-12-24T10:07:34;6.90;99.90
33699;DHT22;20032;52.436;13.312;2022-12-24T10:14:18;7.00;99.90
33699;DHT22;20032;52.436;13.312;2022-12-24T10:16:16;7.00;99.90
33699;DHT22;20032;52.436;13.312;2022-12-24T10:19:01;7.00;99.90
33699;DHT22;20032;52.436;13.312;2022-12-24T10:21:47;7.10;99.90
33699;DHT22;20032;52.436;13.312;2022-12-24T10:24:26;7.10;99.90
33699;DHT22;20032;52.436;13.312;2022-12-24T10:27:00;7.20;99.90
33699;DHT22;20032;52.436;13.312;2022-12-24T10:29:29;7.20;99.90
33699;DHT22;20032;52.436;13.312;2022-12-24T10:32:20;7.20;99.90
33699;DHT22;20032;52.436;13.312;2022-12-24T10:34:52;7.20;99.90
33699;DHT22;20032;52.436;13.312;2022-12-24T10:37:23;7.30;99.90
33699;DHT22;20032;52.436;13.312;2022-12-24T10:39:49;7.30;99.90
33699;DHT22;20032;52.436;13.312;2022-12-24T10:42:16;7.30;99.90
33699;DHT22;20032;52.436;13.312;2022-12-24T10:44:46;7.40;99.90
33699;DHT22;20032;52.436;13.312;2022-12-24T10:47:14;7.40;99.90
33699;DHT22;20032;52.436;13.312;2022-12-24T10:49:46;7.50;99.90
33699;DHT22;20032;52.436;13.312;2022-12-24T10:52:15;7.50;99.90
33699;DHT22;20032;52.436;13.312;2022-12-24T10:57:33;7.50;99.90
33699;DHT22;20032;52.436;13.312;2022-12-24T11:00:00;7.60;99.90
33699;DHT22;20032;52.436;13.312;2022-12-24T11:02:31;7.60;99.90
33699;DHT22;20032;52.436;13.312;2022-12-24T11:05:03;7.50;99.90
33699;DHT22;20032;52.436;13.312;2022-12-24T11:07:30;7.60;99.90
33699;DHT22;20032;52.436;13.312;2022-12-24T11:09:58;7.60;99.90
33699;DHT22;20032;52.436;13.312;2022-12-24T11:12:28;7.60;99.90
33699;DHT22;20032;52.436;13.312;2022-12-24T11:15:01;7.70;99.90
33699;DHT22;20032;52.436;13.312;2022-12-24T11:17:27;7.70;99.90
33699;DHT22;20032;52.436;13.312;2022-12-24T11:19:52;7.80;99.90
33699;DHT22;20032;52.436;13.312;2022-12-24T11:22:23;7.80;99.90
33699;DHT22;20032;52.436;13.312;2022-12-24T11:25:05;7.80;99.90
33699;DHT22;20032;52.436;13.312;2022-12-24T11:27:40;7.70;99.90
33699;DHT22;20032;52.436;13.312;2022-12-24T11:30:25;7.80;99.90
33699;DHT22;20032;52.436;13.312;2022-12-24T11:35:30;7.90;99.90
33699;DHT22;20032;52.436;13.312;2022-12-24T11:40:36;8.00;99.90
33699;DHT22;20032;52.436;13.312;2022-12-24T11:43:04;8.10;99.90
33699;DHT22;20032;52.436;13.312;2022-12-24T11:45:32;8.20;99.90
33699;DHT22;20032;52.436;13.312;2022-12-24T11:47:59;8.20;99.90
33699;DHT22;20032;52.436;13.312;2022-12-24T11:50:34;8.20;99.90
33699;DHT22;20032;52.436;13.312;2022-12-24T11:53:06;8.20;99.90
33699;DHT22;20032;52.436;13.312;2022-12-24T11:55:46;8.20;99.90
33699;DHT22;20032;52.436;13.312;2022-12-24T11:58:19;8.30;99.90
33699;DHT22;20032;52.436;13.312;2022-12-24T12:00:50;8.30;99.90
33699;DHT22;20032;52.436;13.312;2022-12-24T12:03:36;8.30;99.90
33699;DHT22;20032;52.436;13.312;2022-12-24T12:06:27;8.40;99.90
33699;DHT22;20032;52.436;13.312;2022-12-24T12:08:58;8.60;99.90
33699;DHT22;20032;52.436;13.312;2022-12-24T12:11:27;8.70;99.90
33699;DHT22;20032;52.436;13.312;2022-12-24T12:13:56;8.70;99.90
33699;DHT22;20032;52.436;13.312;2022-12-24T12:16:31;8.70;99.90
33699;DHT22;20032;52.436;13.312;2022-12-24T12:19:24;8.60;99.90
33699;DHT22;20032;52.436;13.312;2022-12-24T12:21:51;8.60;99.90
33699;DHT22;20032;52.436;13.312;2022-12-24T12:24:22;8.60;99.90
33699;DHT22;20032;52.436;13.312;2022-12-24T12:27:00;8.50;99.90
33699;DHT22;20032;52.436;13.312;2022-12-24T12:29:32;8.50;99.90
33699;DHT22;20032;52.436;13.312;2022-12-24T12:32:06;8.50;99.90
33699;DHT22;20032;52.436;13.312;2022-12-24T12:34:36;8.50;99.90
33699;DHT22;20032;52.436;13.312;2022-12-24T12:37:17;8.50;99.90
33699;DHT22;20032;52.436;13.312;2022-12-24T12:39:44;8.50;99.90
33699;DHT22;20032;52.436;13.312;2022-12-24T12:42:21;8.60;99.90
33699;DHT22;20032;52.436;13.312;2022-12-24T12:48:22;8.60;99.90
33699;DHT22;20032;52.436;13.312;2022-12-24T12:50:45;8.60;99.90
33699;DHT22;20032;52.436;13.312;2022-12-24T12:53:23;8.60;99.90
33699;DHT22;20032;52.436;13.312;2022-12-24T12:56:43;8.60;99.90
33699;DHT22;20032;52.436;13.312;2022-12-24T12:59:09;8.60;99.90
33699;DHT22;20032;52.436;13.312;2022-12-24T13:04:54;8.60;99.90
33699;DHT22;20032;52.436;13.312;2022-12-24T13:07:49;8.70;99.90
33699;DHT22;20032;52.436;13.312;2022-12-24T13:12:21;8.70;99.90
33699;DHT22;20032;52.436;13.312;2022-12-24T13:13:30;8.80;99.90
33699;DHT22;20032;52.436;13.312;2022-12-24T13:16:27;8.80;99.90
33699;DHT22;20032;52.436;13.312;2022-12-24T13:19:22;8.80;99.90
33699;DHT22;20032;52.436;13.312;2022-12-24T13:21:55;8.90;99.90
33699;DHT22;20032;52.436;13.312;2022-12-24T13:24:23;8.90;99.90
33699;DHT22;20032;52.436;13.312;2022-12-24T13:27:18;9.00;99.90
33699;DHT22;20032;52.436;13.312;2022-12-24T13:29:57;9.00;99.90
33699;DHT22;20032;52.436;13.312;2022-12-24T13:34:56;9.10;99.90
33699;DHT22;20032;52.436;13.312;2022-12-24T13:50:37;9.20;99.90
33699;DHT22;20032;52.436;13.312;2022-12-24T13:53:06;9.20;99.90
33699;DHT22;20032;52.436;13.312;2022-12-24T13:56:08;9.10;99.90
33699;DHT22;20032;52.436;13.312;2022-12-24T13:58:38;9.10;99.90
33699;DHT22;20032;52.436;13.312;2022-12-24T14:01:07;9.00;99.90
33699;DHT22;20032;52.436;13.312;2022-12-24T14:03:39;8.90;99.90
33699;DHT22;20032;52.436;13.312;2022-12-24T14:06:09;8.90;99.90
33699;DHT22;20032;52.436;13.312;2022-12-24T14:08:42;8.90;99.90
33699;DHT22;20032;52.436;13.312;2022-12-24T14:11:13;8.90;99.90
33699;DHT22;20032;52.436;13.312;2022-12-24T14:16:29;8.80;99.90
33699;DHT22;20032;52.436;13.312;2022-12-24T14:19:02;8.80;99.90
33699;DHT22;20032;52.436;13.312;2022-12-24T14:21:36;8.70;99.90
33699;DHT22;20032;52.436;13.312;2022-12-24T14:24:05;8.70;99.90
33699;DHT22;20032;52.436;13.312;2022-12-24T14:26:35;8.60;99.90
33699;DHT22;20032;52.436;13.312;2022-12-24T14:31:52;8.50;99.90
33699;DHT22;20032;52.436;13.312;2022-12-24T14:34:18;8.50;99.90
33699;DHT22;20032;52.436;13.312;2022-12-24T14:36:45;8.50;99.90
33699;DHT22;20032;52.436;13.312;2022-12-24T14:39:21;8.50;99.90
33699;DHT22;20032;52.436;13.312;2022-12-24T14:42:28;8.40;99.90
33699;DHT22;20032;52.436;13.312;2022-12-24T14:45:06;8.40;99.90
33699;DHT22;20032;52.436;13.312;2022-12-24T14:48:40;8.30;99.90
33699;DHT22;20032;52.436;13.312;2022-12-24T14:50:31;8.30;99.90
33699;DHT22;20032;52.436;13.312;2022-12-24T14:56:12;8.20;99.90
33699;DHT22;20032;52.436;13.312;2022-12-24T14:58:38;8.20;99.90
33699;DHT22;20032;52.436;13.312;2022-12-24T15:01:25;8.10;99.90
33699;DHT22;20032;52.436;13.312;2022-12-24T15:07:07;8.10;99.90
33699;DHT22;20032;52.436;13.312;2022-12-24T15:09:24;8.10;99.90
33699;DHT22;20032;52.436;13.312;2022-12-24T15:11:54;8.00;99.90
33699;DHT22;20032;52.436;13.312;2022-12-24T15:14:23;8.00;99.90
33699;DHT22;20032;52.436;13.312;2022-12-24T15:17:05;8.00;99.90
33699;DHT22;20032;52.436;13.312;2022-12-24T15:19:34;7.90;99.90
33699;DHT22;20032;52.436;13.312;2022-12-24T15:22:02;7.90;99.90
33699;DHT22;20032;52.436;13.312;2022-12-24T15:24:33;7.90;99.90
33699;DHT22;20032;52.436;13.312;2022-12-24T15:27:00;7.90;99.90
33699;DHT22;20032;52.436;13.312;2022-12-24T15:29:29;7.90;99.90
33699;DHT22;20032;52.436;13.312;2022-12-24T15:31:59;7.80;99.90
33699;DHT22;20032;52.436;13.312;2022-12-24T15:34:36;7.80;99.90
33699;DHT22;20032;52.436;13.312;2022-12-24T15:37:09;7.80;99.90
33699;DHT22;20032;52.436;13.312;2022-12-24T15:39:37;7.70;99.90
33699;DHT22;20032;52.436;13.312;2022-12-24T15:42:04;7.70;99.90
33699;DHT22;20032;52.436;13.312;2022-12-24T15:44:38;7.60;99.90
33699;DHT22;20032;52.436;13.312;2022-12-24T15:47:06;7.50;99.90
33699;DHT22;20032;52.436;13.312;2022-12-24T15:49:33;7.60;99.90
33699;DHT22;20032;52.436;13.312;2022-12-24T15:52:05;7.50;99.90
33699;DHT22;20032;52.436;13.312;2022-12-24T15:54:33;7.50;99.90
33699;DHT22;20032;52.436;13.312;2022-12-24T15:56:58;7.50;99.90
33699;DHT22;20032;52.436;13.312;2022-12-24T16:01:53;7.40;99.90
33699;DHT22;20032;52.436;13.312;2022-12-24T16:04:24;7.40;99.90
33699;DHT22;20032;52.436;13.312;2022-12-24T16:07:08;7.30;99.90
33699;DHT22;20032;52.436;13.312;2022-12-24T16:09:39;7.40;99.90
33699;DHT22;20032;52.436;13.312;2022-12-24T16:12:17;7.40;99.90
33699;DHT22;20032;52.436;13.312;2022-12-24T16:14:47;7.40;99.90
33699;DHT22;20032;52.436;13.312;2022-12-24T16:17:20;7.40;99.90
33699;DHT22;20032;52.436;13.312;2022-12-24T16:19:49;7.40;99.90
33699;DHT22;20032;52.436;13.312;2022-12-24T16:22:18;7.50;99.90
33699;DHT22;20032;52.436;13.312;2022-12-24T16:25:20;7.60;99.90
33699;DHT22;20032;52.436;13.312;2022-12-24T16:27:47;7.50;99.90
33699;DHT22;20032;52.436;13.312;2022-12-24T16:30:15;7.50;99.90
33699;DHT22;20032;52.436;13.312;2022-12-24T16:32:40;7.40;99.90
33699;DHT22;20032;52.436;13.312;2022-12-24T16:35:19;7.50;99.90
33699;DHT22;20032;52.436;13.312;2022-12-24T16:37:45;7.40;99.90
33699;DHT22;20032;52.436;13.312;2022-12-24T16:40:13;7.40;99.90
33699;DHT22;20032;52.436;13.312;2022-12-24T16:42:39;7.40;99.90
33699;DHT22;20032;52.436;13.312;2022-12-24T16:45:24;7.30;99.90
33699;DHT22;20032;52.436;13.312;2022-12-24T16:47:50;7.30;99.90
33699;DHT22;20032;52.436;13.312;2022-12-24T16:50:16;7.30;99.90